sensor_id;sensor_type;location;lat;lon;timestamp;P1;durP1;ratioP1;P2;durP2;ratioP2
39540;SDS011;25219;52.244;21.006;2023-10-19T00:01:57;23.67;;;12.27;;
39540;SDS011;25219;52.244;21.006;2023-10-19T00:04:23;20.13;;;11.32;;
39540;SDS011;25219;52.244;21.006;2023-10-19T00:06:48;19.83;;;11.20;;
39540;SDS011;25219;52.244;21.006;2023-10-19T00:09:16;26.08;;;12.52;;
39540;SDS011;25219;52.244;21.006;2023-10-19T00:11:41;27.05;;;12.35;;
39540;SDS011;25219;52.244;21.006;2023-10-19T00:14:07;27.00;;;12.00;;
39540;SDS011;25219;52.244;21.006;2023-10-19T00:16:41;26.48;;;12.98;;
39540;SDS011;25219;52.244;21.006;2023-10-19T00:19:06;27.77;;;12.80;;
39540;SDS011;25219;52.244;21.006;2023-10-19T00:21:32;28.90;;;12.95;;
39540;SDS011;25219;52.244;21.006;2023-10-19T00:24:13;27.30;;;12.32;;
39540;SDS011;25219;52.244;21.006;2023-10-19T00:26:41;24.95;;;13.00;;
39540;SDS011;25219;52.244;21.006;2023-10-19T00:29:07;22.97;;;13.20;;
39540;SDS011;25219;52.244;21.006;2023-10-19T00:31:50;29.70;;;12.60;;
39540;SDS011;25219;52.244;21.006;2023-10-19T00:34:16;25.48;;;13.23;;
39540;SDS011;25219;52.244;21.006;2023-10-19T00:36:41;24.60;;;13.27;;
39540;SDS011;25219;52.244;21.006;2023-10-19T00:39:06;29.13;;;14.03;;
39540;SDS011;25219;52.244;21.006;2023-10-19T00:41:39;26.13;;;13.50;;
39540;SDS011;25219;52.244;21.006;2023-10-19T00:44:05;29.52;;;13.57;;
39540;SDS011;25219;52.244;21.006;2023-10-19T00:46:37;25.67;;;13.05;;
39540;SDS011;25219;52.244;21.006;2023-10-19T00:49:08;28.77;;;13.07;;
39540;SDS011;25219;52.244;21.006;2023-10-19T00:51:38;27.70;;;14.30;;
39540;SDS011;25219;52.244;21.006;2023-10-19T00:54:21;28.42;;;13.32;;
39540;SDS011;25219;52.244;21.006;2023-10-19T00:57:01;31.88;;;13.75;;
39540;SDS011;25219;52.244;21.006;2023-10-19T00:59:36;23.65;;;12.50;;
39540;SDS011;25219;52.244;21.006;2023-10-19T01:02:07;23.23;;;13.10;;
39540;SDS011;25219;52.244;21.006;2023-10-19T01:04:47;28.02;;;13.75;;
39540;SDS011;25219;52.244;21.006;2023-10-19T01:07:17;25.00;;;12.43;;
39540;SDS011;25219;52.244;21.006;2023-10-19T01:09:52;26.27;;;13.63;;
39540;SDS011;25219;52.244;21.006;2023-10-19T01:12:19;23.42;;;12.98;;
39540;SDS011;25219;52.244;21.006;2023-10-19T01:17:52;27.08;;;13.95;;
39540;SDS011;25219;52.244;21.006;2023-10-19T01:20:19;25.73;;;14.48;;
39540;SDS011;25219;52.244;21.006;2023-10-19T01:22:49;24.38;;;13.52;;
39540;SDS011;25219;52.244;21.006;2023-10-19T01:25:18;27.15;;;14.73;;
39540;SDS011;25219;52.244;21.006;2023-10-19T01:27:44;27.27;;;13.98;;
39540;SDS011;25219;52.244;21.006;2023-10-19T01:30:10;25.88;;;14.07;;
39540;SDS011;25219;52.244;21.006;2023-10-19T01:32:36;27.80;;;15.10;;
39540;SDS011;25219;52.244;21.006;2023-10-19T01:35:01;34.33;;;15.53;;
39540;SDS011;25219;52.244;21.006;2023-10-19T01:37:26;28.07;;;15.73;;
39540;SDS011;25219;52.244;21.006;2023-10-19T01:39:51;31.93;;;15.77;;
39540;SDS011;25219;52.244;21.006;2023-10-19T01:42:17;28.65;;;14.90;;
39540;SDS011;25219;52.244;21.006;2023-10-19T01:44:42;34.05;;;17.67;;
39540;SDS011;25219;52.244;21.006;2023-10-19T01:47:08;36.87;;;18.57;;
39540;SDS011;25219;52.244;21.006;2023-10-19T01:49:33;40.93;;;18.57;;
39540;SDS011;25219;52.244;21.006;2023-10-19T01:51:58;34.57;;;18.20;;
39540;SDS011;25219;52.244;21.006;2023-10-19T01:54:23;38.50;;;18.60;;
39540;SDS011;25219;52.244;21.006;2023-10-19T01:56:54;39.97;;;18.85;;
39540;SDS011;25219;52.244;21.006;2023-10-19T01:59:22;44.88;;;19.05;;
39540;SDS011;25219;52.244;21.006;2023-10-19T02:01:47;41.13;;;19.27;;
39540;SDS011;25219;52.244;21.006;2023-10-19T02:04:14;39.97;;;18.48;;
39540;SDS011;25219;52.244;21.006;2023-10-19T02:06:39;37.92;;;19.05;;
39540;SDS011;25219;52.244;21.006;2023-10-19T02:09:11;41.67;;;20.98;;
39540;SDS011;25219;52.244;21.006;2023-10-19T02:11:47;42.67;;;19.88;;
39540;SDS011;25219;52.244;21.006;2023-10-19T02:14:12;45.90;;;22.25;;
39540;SDS011;25219;52.244;21.006;2023-10-19T02:16:40;43.53;;;21.10;;
39540;SDS011;25219;52.244;21.006;2023-10-19T02:19:06;43.13;;;20.63;;
39540;SDS011;25219;52.244;21.006;2023-10-19T02:21:32;43.83;;;20.98;;
39540;SDS011;25219;52.244;21.006;2023-10-19T02:24:02;44.97;;;20.63;;
39540;SDS011;25219;52.244;21.006;2023-10-19T02:26:28;46.03;;;22.15;;
39540;SDS011;25219;52.244;21.006;2023-10-19T02:28:55;44.83;;;23.73;;
39540;SDS011;25219;52.244;21.006;2023-10-19T02:31:21;45.35;;;22.83;;
39540;SDS011;25219;52.244;21.006;2023-10-19T02:33:53;41.20;;;20.52;;
39540;SDS011;25219;52.244;21.006;2023-10-19T02:36:25;47.40;;;20.40;;
39540;SDS011;25219;52.244;21.006;2023-10-19T02:38:53;46.92;;;22.70;;
39540;SDS011;25219;52.244;21.006;2023-10-19T02:41:19;42.05;;;21.83;;
39540;SDS011;25219;52.244;21.006;2023-10-19T02:43:45;48.33;;;23.48;;
39540;SDS011;25219;52.244;21.006;2023-10-19T02:46:12;45.78;;;21.65;;
39540;SDS011;25219;52.244;21.006;2023-10-19T02:48:38;45.25;;;20.80;;
39540;SDS011;25219;52.244;21.006;2023-10-19T02:51:03;48.78;;;23.50;;
39540;SDS011;25219;52.244;21.006;2023-10-19T02:53:35;44.30;;;21.65;;
39540;SDS011;25219;52.244;21.006;2023-10-19T02:56:08;49.50;;;22.88;;
39540;SDS011;25219;52.244;21.006;2023-10-19T02:58:34;42.60;;;22.10;;
39540;SDS011;25219;52.244;21.006;2023-10-19T03:00:59;45.85;;;22.40;;
39540;SDS011;25219;52.244;21.006;2023-10-19T03:03:25;46.53;;;21.90;;
39540;SDS011;25219;52.244;21.006;2023-10-19T03:05:50;48.40;;;22.83;;
39540;SDS011;25219;52.244;21.006;2023-10-19T03:08:16;53.42;;;25.20;;
39540;SDS011;25219;52.244;21.006;2023-10-19T03:10:44;50.08;;;23.23;;
39540;SDS011;25219;52.244;21.006;2023-10-19T03:13:09;47.63;;;23.77;;
39540;SDS011;25219;52.244;21.006;2023-10-19T03:15:34;47.10;;;24.60;;
39540;SDS011;25219;52.244;21.006;2023-10-19T03:18:00;47.65;;;24.02;;
39540;SDS011;25219;52.244;21.006;2023-10-19T03:20:26;53.67;;;24.23;;
39540;SDS011;25219;52.244;21.006;2023-10-19T03:22:52;46.70;;;22.95;;
39540;SDS011;25219;52.244;21.006;2023-10-19T03:25:17;48.30;;;24.67;;
39540;SDS011;25219;52.244;21.006;2023-10-19T03:28:01;50.42;;;24.45;;
39540;SDS011;25219;52.244;21.006;2023-10-19T03:30:41;55.30;;;25.23;;
39540;SDS011;25219;52.244;21.006;2023-10-19T03:33:07;44.47;;;23.60;;
39540;SDS011;25219;52.244;21.006;2023-10-19T03:35:37;45.80;;;23.58;;
39540;SDS011;25219;52.244;21.006;2023-10-19T03:38:03;46.97;;;22.73;;
39540;SDS011;25219;52.244;21.006;2023-10-19T03:40:40;43.33;;;22.10;;
39540;SDS011;25219;52.244;21.006;2023-10-19T03:43:05;44.80;;;21.63;;
39540;SDS011;25219;52.244;21.006;2023-10-19T03:45:42;44.58;;;22.45;;
39540;SDS011;25219;52.244;21.006;2023-10-19T03:48:12;44.25;;;22.48;;
39540;SDS011;25219;52.244;21.006;2023-10-19T03:50:37;45.87;;;22.60;;
39540;SDS011;25219;52.244;21.006;2023-10-19T03:53:02;42.58;;;22.75;;
39540;SDS011;25219;52.244;21.006;2023-10-19T03:55:29;45.03;;;21.58;;
39540;SDS011;25219;52.244;21.006;2023-10-19T03:57:55;55.22;;;23.35;;
39540;SDS011;25219;52.244;21.006;2023-10-19T04:00:20;48.60;;;22.80;;
39540;SDS011;25219;52.244;21.006;2023-10-19T04:02:50;46.10;;;22.27;;
39540;SDS011;25219;52.244;21.006;2023-10-19T04:05:19;46.60;;;22.08;;
39540;SDS011;25219;52.244;21.006;2023-10-19T04:07:48;44.05;;;22.77;;
39540;SDS011;25219;52.244;21.006;2023-10-19T04:10:23;41.47;;;23.60;;
39540;SDS011;25219;52.244;21.006;2023-10-19T04:13:00;45.95;;;25.20;;
39540;SDS011;25219;52.244;21.006;2023-10-19T04:15:26;46.05;;;23.73;;
39540;SDS011;25219;52.244;21.006;2023-10-19T04:17:54;50.22;;;25.42;;
39540;SDS011;25219;52.244;21.006;2023-10-19T04:20:21;53.58;;;24.40;;
39540;SDS011;25219;52.244;21.006;2023-10-19T04:22:55;51.22;;;24.17;;
39540;SDS011;25219;52.244;21.006;2023-10-19T04:25:21;45.50;;;24.23;;
39540;SDS011;25219;52.244;21.006;2023-10-19T04:27:54;48.53;;;24.42;;
39540;SDS011;25219;52.244;21.006;2023-10-19T04:30:21;51.35;;;25.92;;
39540;SDS011;25219;52.244;21.006;2023-10-19T04:32:47;52.70;;;24.50;;
39540;SDS011;25219;52.244;21.006;2023-10-19T04:35:13;49.83;;;24.75;;
39540;SDS011;25219;52.244;21.006;2023-10-19T04:37:40;49.17;;;24.38;;
39540;SDS011;25219;52.244;21.006;2023-10-19T04:40:07;51.25;;;24.95;;
39540;SDS011;25219;52.244;21.006;2023-10-19T04:42:33;51.15;;;25.10;;
39540;SDS011;25219;52.244;21.006;2023-10-19T04:44:58;51.72;;;24.42;;
39540;SDS011;25219;52.244;21.006;2023-10-19T04:47:24;54.42;;;25.88;;
39540;SDS011;25219;52.244;21.006;2023-10-19T04:49:49;44.50;;;23.92;;
39540;SDS011;25219;52.244;21.006;2023-10-19T04:52:14;47.72;;;24.67;;
39540;SDS011;25219;52.244;21.006;2023-10-19T04:54:39;47.93;;;23.40;;
39540;SDS011;25219;52.244;21.006;2023-10-19T04:57:04;49.03;;;22.93;;
39540;SDS011;25219;52.244;21.006;2023-10-19T04:59:30;43.95;;;22.17;;
39540;SDS011;25219;52.244;21.006;2023-10-19T05:01:58;38.22;;;20.58;;
39540;SDS011;25219;52.244;21.006;2023-10-19T05:04:23;45.97;;;21.33;;
39540;SDS011;25219;52.244;21.006;2023-10-19T05:06:49;39.97;;;21.08;;
39540;SDS011;25219;52.244;21.006;2023-10-19T05:09:14;45.55;;;21.50;;
39540;SDS011;25219;52.244;21.006;2023-10-19T05:11:40;34.78;;;18.75;;
39540;SDS011;25219;52.244;21.006;2023-10-19T05:14:05;45.45;;;19.90;;
39540;SDS011;25219;52.244;21.006;2023-10-19T05:16:30;33.03;;;17.85;;
39540;SDS011;25219;52.244;21.006;2023-10-19T05:18:56;32.15;;;15.75;;
39540;SDS011;25219;52.244;21.006;2023-10-19T05:21:21;38.45;;;16.90;;
39540;SDS011;25219;52.244;21.006;2023-10-19T05:23:46;31.30;;;16.20;;
39540;SDS011;25219;52.244;21.006;2023-10-19T05:26:12;32.05;;;16.92;;
39540;SDS011;25219;52.244;21.006;2023-10-19T05:28:39;32.58;;;17.08;;
39540;SDS011;25219;52.244;21.006;2023-10-19T05:31:04;32.23;;;17.13;;
39540;SDS011;25219;52.244;21.006;2023-10-19T05:33:30;32.73;;;15.07;;
39540;SDS011;25219;52.244;21.006;2023-10-19T05:35:55;37.93;;;16.30;;
39540;SDS011;25219;52.244;21.006;2023-10-19T05:38:20;30.60;;;16.20;;
39540;SDS011;25219;52.244;21.006;2023-10-19T05:40:47;32.13;;;16.45;;
39540;SDS011;25219;52.244;21.006;2023-10-19T05:43:14;32.03;;;16.05;;
39540;SDS011;25219;52.244;21.006;2023-10-19T05:45:40;33.33;;;17.30;;
39540;SDS011;25219;52.244;21.006;2023-10-19T05:48:06;34.33;;;17.70;;
39540;SDS011;25219;52.244;21.006;2023-10-19T05:50:34;29.38;;;15.85;;
39540;SDS011;25219;52.244;21.006;2023-10-19T05:53:00;48.13;;;17.95;;
39540;SDS011;25219;52.244;21.006;2023-10-19T05:55:25;38.78;;;18.10;;
39540;SDS011;25219;52.244;21.006;2023-10-19T05:57:50;33.13;;;17.45;;
39540;SDS011;25219;52.244;21.006;2023-10-19T06:00:16;37.08;;;17.58;;
39540;SDS011;25219;52.244;21.006;2023-10-19T06:02:43;38.97;;;18.38;;
39540;SDS011;25219;52.244;21.006;2023-10-19T06:05:09;34.45;;;18.48;;
39540;SDS011;25219;52.244;21.006;2023-10-19T06:07:34;37.03;;;17.75;;
39540;SDS011;25219;52.244;21.006;2023-10-19T06:09:59;40.13;;;19.07;;
39540;SDS011;25219;52.244;21.006;2023-10-19T06:12:29;38.42;;;18.05;;
39540;SDS011;25219;52.244;21.006;2023-10-19T06:14:54;43.87;;;18.80;;
39540;SDS011;25219;52.244;21.006;2023-10-19T06:17:19;40.23;;;18.40;;
39540;SDS011;25219;52.244;21.006;2023-10-19T06:19:44;46.23;;;19.37;;
39540;SDS011;25219;52.244;21.006;2023-10-19T06:22:10;41.97;;;18.80;;
39540;SDS011;25219;52.244;21.006;2023-10-19T06:24:37;36.90;;;17.98;;
39540;SDS011;25219;52.244;21.006;2023-10-19T06:27:02;40.90;;;18.80;;
39540;SDS011;25219;52.244;21.006;2023-10-19T06:29:27;38.97;;;18.73;;
39540;SDS011;25219;52.244;21.006;2023-10-19T06:31:53;34.00;;;18.10;;
39540;SDS011;25219;52.244;21.006;2023-10-19T06:34:21;40.53;;;18.38;;
39540;SDS011;25219;52.244;21.006;2023-10-19T06:36:46;37.20;;;17.35;;
39540;SDS011;25219;52.244;21.006;2023-10-19T06:39:11;42.42;;;18.08;;
39540;SDS011;25219;52.244;21.006;2023-10-19T06:41:38;40.92;;;17.83;;
39540;SDS011;25219;52.244;21.006;2023-10-19T06:44:03;35.88;;;19.20;;
39540;SDS011;25219;52.244;21.006;2023-10-19T06:46:29;34.65;;;18.13;;
39540;SDS011;25219;52.244;21.006;2023-10-19T06:48:55;43.97;;;18.98;;
39540;SDS011;25219;52.244;21.006;2023-10-19T06:51:25;36.13;;;18.27;;
39540;SDS011;25219;52.244;21.006;2023-10-19T06:53:51;38.65;;;17.67;;
39540;SDS011;25219;52.244;21.006;2023-10-19T06:56:16;36.73;;;17.77;;
39540;SDS011;25219;52.244;21.006;2023-10-19T06:58:41;33.58;;;18.15;;
39540;SDS011;25219;52.244;21.006;2023-10-19T07:01:07;38.80;;;18.73;;
39540;SDS011;25219;52.244;21.006;2023-10-19T07:03:33;49.03;;;18.00;;
39540;SDS011;25219;52.244;21.006;2023-10-19T07:05:58;30.45;;;16.58;;
39540;SDS011;25219;52.244;21.006;2023-10-19T07:08:24;34.72;;;17.65;;
39540;SDS011;25219;52.244;21.006;2023-10-19T07:10:52;41.00;;;18.88;;
39540;SDS011;25219;52.244;21.006;2023-10-19T07:13:17;46.17;;;17.40;;
39540;SDS011;25219;52.244;21.006;2023-10-19T07:15:44;32.27;;;16.20;;
39540;SDS011;25219;52.244;21.006;2023-10-19T07:18:09;35.03;;;18.23;;
39540;SDS011;25219;52.244;21.006;2023-10-19T07:20:35;37.47;;;18.80;;
39540;SDS011;25219;52.244;21.006;2023-10-19T07:23:04;38.20;;;17.55;;
39540;SDS011;25219;52.244;21.006;2023-10-19T07:28:08;38.25;;;17.60;;
39540;SDS011;25219;52.244;21.006;2023-10-19T07:30:34;37.33;;;18.38;;
39540;SDS011;25219;52.244;21.006;2023-10-19T07:33:00;32.50;;;17.92;;
39540;SDS011;25219;52.244;21.006;2023-10-19T07:35:25;34.40;;;18.13;;
39540;SDS011;25219;52.244;21.006;2023-10-19T07:37:51;38.40;;;18.48;;
39540;SDS011;25219;52.244;21.006;2023-10-19T07:40:16;41.55;;;18.73;;
39540;SDS011;25219;52.244;21.006;2023-10-19T07:42:43;38.67;;;17.55;;
39540;SDS011;25219;52.244;21.006;2023-10-19T07:45:08;45.00;;;19.08;;
39540;SDS011;25219;52.244;21.006;2023-10-19T07:47:36;39.88;;;20.10;;
39540;SDS011;25219;52.244;21.006;2023-10-19T07:50:02;43.03;;;17.85;;
39540;SDS011;25219;52.244;21.006;2023-10-19T07:52:28;37.50;;;18.77;;
39540;SDS011;25219;52.244;21.006;2023-10-19T07:54:53;33.05;;;18.25;;
39540;SDS011;25219;52.244;21.006;2023-10-19T07:57:18;33.13;;;17.02;;
39540;SDS011;25219;52.244;21.006;2023-10-19T07:59:45;34.70;;;17.75;;
39540;SDS011;25219;52.244;21.006;2023-10-19T08:02:10;34.77;;;17.47;;
39540;SDS011;25219;52.244;21.006;2023-10-19T08:04:35;35.00;;;17.47;;
39540;SDS011;25219;52.244;21.006;2023-10-19T08:07:01;38.58;;;16.15;;
39540;SDS011;25219;52.244;21.006;2023-10-19T08:09:26;32.47;;;16.27;;
39540;SDS011;25219;52.244;21.006;2023-10-19T08:11:56;35.80;;;15.90;;
39540;SDS011;25219;52.244;21.006;2023-10-19T08:14:24;30.38;;;16.00;;
39540;SDS011;25219;52.244;21.006;2023-10-19T08:16:50;32.65;;;16.65;;
39540;SDS011;25219;52.244;21.006;2023-10-19T08:19:15;29.52;;;15.32;;
39540;SDS011;25219;52.244;21.006;2023-10-19T08:21:41;28.53;;;14.87;;
39540;SDS011;25219;52.244;21.006;2023-10-19T08:24:06;25.20;;;14.88;;
39540;SDS011;25219;52.244;21.006;2023-10-19T08:26:31;30.60;;;15.53;;
39540;SDS011;25219;52.244;21.006;2023-10-19T08:28:56;39.53;;;15.67;;
39540;SDS011;25219;52.244;21.006;2023-10-19T08:31:23;27.17;;;15.57;;
39540;SDS011;25219;52.244;21.006;2023-10-19T08:33:49;35.55;;;16.30;;
39540;SDS011;25219;52.244;21.006;2023-10-19T08:36:18;28.95;;;15.77;;
39540;SDS011;25219;52.244;21.006;2023-10-19T08:38:44;34.58;;;16.13;;
39540;SDS011;25219;52.244;21.006;2023-10-19T08:41:10;30.80;;;15.75;;
39540;SDS011;25219;52.244;21.006;2023-10-19T08:43:35;30.17;;;15.23;;
39540;SDS011;25219;52.244;21.006;2023-10-19T08:46:04;28.30;;;15.15;;
39540;SDS011;25219;52.244;21.006;2023-10-19T08:48:32;26.42;;;14.73;;
39540;SDS011;25219;52.244;21.006;2023-10-19T08:50:59;24.15;;;13.95;;
39540;SDS011;25219;52.244;21.006;2023-10-19T08:53:25;28.73;;;14.75;;
39540;SDS011;25219;52.244;21.006;2023-10-19T08:55:50;23.10;;;13.45;;
39540;SDS011;25219;52.244;21.006;2023-10-19T08:58:19;27.17;;;14.07;;
39540;SDS011;25219;52.244;21.006;2023-10-19T09:00:45;22.10;;;11.23;;
39540;SDS011;25219;52.244;21.006;2023-10-19T09:03:12;20.08;;;12.30;;
39540;SDS011;25219;52.244;21.006;2023-10-19T09:05:38;20.98;;;11.25;;
39540;SDS011;25219;52.244;21.006;2023-10-19T09:08:05;27.17;;;13.20;;
39540;SDS011;25219;52.244;21.006;2023-10-19T09:10:31;21.67;;;11.52;;
39540;SDS011;25219;52.244;21.006;2023-10-19T09:13:05;18.90;;;10.80;;
39540;SDS011;25219;52.244;21.006;2023-10-19T09:15:33;19.23;;;10.50;;
39540;SDS011;25219;52.244;21.006;2023-10-19T09:18:11;22.95;;;11.13;;
39540;SDS011;25219;52.244;21.006;2023-10-19T09:20:38;22.00;;;10.80;;
39540;SDS011;25219;52.244;21.006;2023-10-19T09:23:03;16.25;;;9.70;;
39540;SDS011;25219;52.244;21.006;2023-10-19T09:25:28;21.10;;;9.73;;
39540;SDS011;25219;52.244;21.006;2023-10-19T09:27:54;17.58;;;10.02;;
39540;SDS011;25219;52.244;21.006;2023-10-19T09:30:19;20.27;;;9.18;;
39540;SDS011;25219;52.244;21.006;2023-10-19T09:32:46;17.85;;;10.40;;
39540;SDS011;25219;52.244;21.006;2023-10-19T09:35:11;18.08;;;9.63;;
39540;SDS011;25219;52.244;21.006;2023-10-19T09:37:40;18.77;;;9.90;;
39540;SDS011;25219;52.244;21.006;2023-10-19T09:40:06;15.35;;;9.05;;
39540;SDS011;25219;52.244;21.006;2023-10-19T09:42:36;17.75;;;8.98;;
39540;SDS011;25219;52.244;21.006;2023-10-19T09:45:01;19.40;;;8.80;;
39540;SDS011;25219;52.244;21.006;2023-10-19T09:47:30;17.00;;;9.35;;
39540;SDS011;25219;52.244;21.006;2023-10-19T09:50:00;13.77;;;7.40;;
39540;SDS011;25219;52.244;21.006;2023-10-19T09:52:25;19.27;;;8.27;;
39540;SDS011;25219;52.244;21.006;2023-10-19T09:54:57;15.75;;;7.80;;
39540;SDS011;25219;52.244;21.006;2023-10-19T09:57:30;15.77;;;8.27;;
39540;SDS011;25219;52.244;21.006;2023-10-19T09:59:59;16.20;;;7.90;;
39540;SDS011;25219;52.244;21.006;2023-10-19T10:02:32;16.20;;;7.90;;
39540;SDS011;25219;52.244;21.006;2023-10-19T10:04:57;13.82;;;7.18;;
39540;SDS011;25219;52.244;21.006;2023-10-19T10:07:23;14.67;;;6.67;;
39540;SDS011;25219;52.244;21.006;2023-10-19T10:09:50;18.15;;;7.15;;
39540;SDS011;25219;52.244;21.006;2023-10-19T10:12:23;15.90;;;7.53;;
39540;SDS011;25219;52.244;21.006;2023-10-19T10:14:54;13.02;;;7.68;;
39540;SDS011;25219;52.244;21.006;2023-10-19T10:17:21;15.95;;;6.95;;
39540;SDS011;25219;52.244;21.006;2023-10-19T10:19:47;13.88;;;7.20;;
39540;SDS011;25219;52.244;21.006;2023-10-19T10:22:13;15.07;;;7.90;;
39540;SDS011;25219;52.244;21.006;2023-10-19T10:24:42;14.48;;;6.70;;
39540;SDS011;25219;52.244;21.006;2023-10-19T10:27:07;12.13;;;7.03;;
39540;SDS011;25219;52.244;21.006;2023-10-19T10:29:32;19.58;;;7.72;;
39540;SDS011;25219;52.244;21.006;2023-10-19T10:31:58;11.90;;;7.30;;
39540;SDS011;25219;52.244;21.006;2023-10-19T10:37:07;13.13;;;7.28;;
39540;SDS011;25219;52.244;21.006;2023-10-19T10:39:33;19.58;;;7.18;;
39540;SDS011;25219;52.244;21.006;2023-10-19T10:42:02;12.35;;;7.35;;
39540;SDS011;25219;52.244;21.006;2023-10-19T10:49:25;14.82;;;7.95;;
39540;SDS011;25219;52.244;21.006;2023-10-19T10:51:50;19.00;;;7.63;;
39540;SDS011;25219;52.244;21.006;2023-10-19T10:54:20;13.48;;;7.45;;
39540;SDS011;25219;52.244;21.006;2023-10-19T10:56:46;11.15;;;6.57;;
39540;SDS011;25219;52.244;21.006;2023-10-19T10:59:14;14.07;;;7.47;;
39540;SDS011;25219;52.244;21.006;2023-10-19T11:01:39;14.27;;;7.25;;
39540;SDS011;25219;52.244;21.006;2023-10-19T11:04:09;15.85;;;7.78;;
39540;SDS011;25219;52.244;21.006;2023-10-19T11:06:49;17.60;;;6.97;;
39540;SDS011;25219;52.244;21.006;2023-10-19T11:09:15;15.93;;;7.35;;
39540;SDS011;25219;52.244;21.006;2023-10-19T11:11:47;20.30;;;6.93;;
39540;SDS011;25219;52.244;21.006;2023-10-19T11:14:12;12.88;;;6.85;;
39540;SDS011;25219;52.244;21.006;2023-10-19T11:16:38;14.73;;;7.70;;
39540;SDS011;25219;52.244;21.006;2023-10-19T11:19:04;12.18;;;7.38;;
39540;SDS011;25219;52.244;21.006;2023-10-19T11:21:29;13.43;;;6.75;;
39540;SDS011;25219;52.244;21.006;2023-10-19T11:23:54;17.67;;;7.40;;
39540;SDS011;25219;52.244;21.006;2023-10-19T11:26:22;14.63;;;7.53;;
39540;SDS011;25219;52.244;21.006;2023-10-19T11:28:59;14.27;;;7.88;;
39540;SDS011;25219;52.244;21.006;2023-10-19T11:31:25;18.15;;;7.55;;
39540;SDS011;25219;52.244;21.006;2023-10-19T11:33:51;16.35;;;6.57;;
39540;SDS011;25219;52.244;21.006;2023-10-19T11:36:18;15.02;;;7.28;;
39540;SDS011;25219;52.244;21.006;2023-10-19T11:38:44;14.88;;;7.03;;
39540;SDS011;25219;52.244;21.006;2023-10-19T11:41:13;13.48;;;7.07;;
39540;SDS011;25219;52.244;21.006;2023-10-19T11:43:39;19.30;;;8.23;;
39540;SDS011;25219;52.244;21.006;2023-10-19T11:46:05;13.70;;;7.25;;
39540;SDS011;25219;52.244;21.006;2023-10-19T11:48:31;14.52;;;7.68;;
39540;SDS011;25219;52.244;21.006;2023-10-19T11:50:56;15.38;;;8.07;;
39540;SDS011;25219;52.244;21.006;2023-10-19T11:53:22;18.92;;;8.65;;
39540;SDS011;25219;52.244;21.006;2023-10-19T11:55:47;18.63;;;7.83;;
39540;SDS011;25219;52.244;21.006;2023-10-19T11:58:13;13.35;;;7.15;;
39540;SDS011;25219;52.244;21.006;2023-10-19T12:00:39;15.82;;;7.18;;
39540;SDS011;25219;52.244;21.006;2023-10-19T12:03:04;13.98;;;7.32;;
39540;SDS011;25219;52.244;21.006;2023-10-19T12:05:31;12.57;;;7.40;;
39540;SDS011;25219;52.244;21.006;2023-10-19T12:07:56;15.07;;;7.30;;
39540;SDS011;25219;52.244;21.006;2023-10-19T12:10:21;12.30;;;7.03;;
39540;SDS011;25219;52.244;21.006;2023-10-19T12:12:51;16.13;;;7.25;;
39540;SDS011;25219;52.244;21.006;2023-10-19T12:15:17;13.98;;;7.80;;
39540;SDS011;25219;52.244;21.006;2023-10-19T12:17:43;15.70;;;7.60;;
39540;SDS011;25219;52.244;21.006;2023-10-19T12:20:08;19.43;;;7.87;;
39540;SDS011;25219;52.244;21.006;2023-10-19T12:22:33;15.60;;;7.77;;
39540;SDS011;25219;52.244;21.006;2023-10-19T12:25:05;18.95;;;8.15;;
39540;SDS011;25219;52.244;21.006;2023-10-19T12:27:31;17.92;;;8.20;;
39540;SDS011;25219;52.244;21.006;2023-10-19T12:29:56;18.53;;;7.93;;
39540;SDS011;25219;52.244;21.006;2023-10-19T12:32:22;17.10;;;8.10;;
39540;SDS011;25219;52.244;21.006;2023-10-19T12:34:49;16.80;;;8.77;;
39540;SDS011;25219;52.244;21.006;2023-10-19T12:37:18;17.92;;;8.77;;
39540;SDS011;25219;52.244;21.006;2023-10-19T12:39:43;14.77;;;7.50;;
39540;SDS011;25219;52.244;21.006;2023-10-19T12:42:10;20.98;;;8.02;;
39540;SDS011;25219;52.244;21.006;2023-10-19T12:44:35;18.73;;;8.68;;
39540;SDS011;25219;52.244;21.006;2023-10-19T12:47:04;15.40;;;7.68;;
39540;SDS011;25219;52.244;21.006;2023-10-19T12:49:34;15.07;;;9.13;;
39540;SDS011;25219;52.244;21.006;2023-10-19T12:52:00;15.88;;;8.27;;
39540;SDS011;25219;52.244;21.006;2023-10-19T12:54:28;19.77;;;9.38;;
39540;SDS011;25219;52.244;21.006;2023-10-19T12:56:53;18.13;;;8.65;;
39540;SDS011;25219;52.244;21.006;2023-10-19T12:59:18;18.93;;;8.97;;
39540;SDS011;25219;52.244;21.006;2023-10-19T13:01:44;15.90;;;8.20;;
39540;SDS011;25219;52.244;21.006;2023-10-19T13:04:13;22.00;;;9.45;;
39540;SDS011;25219;52.244;21.006;2023-10-19T13:06:49;21.08;;;9.38;;
39540;SDS011;25219;52.244;21.006;2023-10-19T13:09:14;20.67;;;9.93;;
39540;SDS011;25219;52.244;21.006;2023-10-19T13:11:41;22.73;;;10.23;;
39540;SDS011;25219;52.244;21.006;2023-10-19T13:14:08;17.38;;;8.98;;
39540;SDS011;25219;52.244;21.006;2023-10-19T13:16:33;21.52;;;8.57;;
39540;SDS011;25219;52.244;21.006;2023-10-19T13:19:00;25.48;;;8.63;;
39540;SDS011;25219;52.244;21.006;2023-10-19T13:21:33;19.27;;;9.15;;
39540;SDS011;25219;52.244;21.006;2023-10-19T13:23:58;16.70;;;8.27;;
39540;SDS011;25219;52.244;21.006;2023-10-19T13:26:24;16.02;;;8.20;;
39540;SDS011;25219;52.244;21.006;2023-10-19T13:28:50;16.55;;;8.30;;
39540;SDS011;25219;52.244;21.006;2023-10-19T13:31:17;18.77;;;9.13;;
39540;SDS011;25219;52.244;21.006;2023-10-19T13:33:44;13.30;;;8.30;;
39540;SDS011;25219;52.244;21.006;2023-10-19T13:36:11;21.73;;;9.18;;
39540;SDS011;25219;52.244;21.006;2023-10-19T13:38:37;15.80;;;8.93;;
39540;SDS011;25219;52.244;21.006;2023-10-19T13:41:03;14.77;;;8.93;;
39540;SDS011;25219;52.244;21.006;2023-10-19T13:43:32;18.08;;;8.63;;
39540;SDS011;25219;52.244;21.006;2023-10-19T13:45:57;19.00;;;8.57;;
39540;SDS011;25219;52.244;21.006;2023-10-19T13:48:23;15.15;;;8.60;;
39540;SDS011;25219;52.244;21.006;2023-10-19T13:50:48;19.30;;;8.13;;
39540;SDS011;25219;52.244;21.006;2023-10-19T13:53:14;14.77;;;8.70;;
39540;SDS011;25219;52.244;21.006;2023-10-19T13:55:40;18.38;;;8.90;;
39540;SDS011;25219;52.244;21.006;2023-10-19T13:58:05;17.37;;;8.70;;
39540;SDS011;25219;52.244;21.006;2023-10-19T14:00:31;26.55;;;10.40;;
39540;SDS011;25219;52.244;21.006;2023-10-19T14:02:59;18.02;;;8.95;;
39540;SDS011;25219;52.244;21.006;2023-10-19T14:05:26;15.88;;;9.23;;
39540;SDS011;25219;52.244;21.006;2023-10-19T14:07:51;14.38;;;8.55;;
39540;SDS011;25219;52.244;21.006;2023-10-19T14:10:17;17.10;;;9.43;;
39540;SDS011;25219;52.244;21.006;2023-10-19T14:12:44;20.23;;;8.43;;
39540;SDS011;25219;52.244;21.006;2023-10-19T14:15:12;17.47;;;9.13;;
39540;SDS011;25219;52.244;21.006;2023-10-19T14:17:37;17.05;;;8.95;;
39540;SDS011;25219;52.244;21.006;2023-10-19T14:20:03;22.00;;;10.18;;
39540;SDS011;25219;52.244;21.006;2023-10-19T14:22:30;19.63;;;9.60;;
39540;SDS011;25219;52.244;21.006;2023-10-19T14:24:59;20.63;;;9.25;;
39540;SDS011;25219;52.244;21.006;2023-10-19T14:27:24;21.00;;;9.38;;